Tarrant, Alabama
Current Conditions -  °F | °C
As of 10:53 AM on Friday 31 Oct 2014 (Local Time) from KBHM Reporting Station
Broken Clouds Broken Clouds  
Wind Chill: 63°   Ceiling: 20000
Heat Index: 63°   Visibility: 10mi
Dew Point: 41°   Wind: 9mph
Humidity: 45%   Direction: 340°NNW
Pressure: 30.02"   Gusts: NA
Location:  33.605°N, 86.7592°W
Report Text: KBHM 311553Z 34008KT 10SM SCT047 BKN200 17/05 A3002 RMK AO2 SLP162 T01720050
Loading
Personal Weather Stations






























Interactive Weather Map
Tropical Storm Tracking
New forecast layout! Learn more

10-Day Weather Forecast

Advertisements
Track Severe Weather on mobile